Pryor, Oklahoma
Current Conditions -  °F | °C
As of 10:35 AM on Thursday 30 Oct 2014 (Local Time) from KGCM Reporting Station
Clear Clear  
Wind Chill: 57°   Ceiling: Unl
Heat Index: 57°   Visibility: 10mi
Dew Point: 46°   Wind: 10mph
Humidity: 67%   Direction: 220°SW
Pressure: 30.14"   Gusts: NA
Location:  36.31°N, 95.32°W
Report Text: KGCM 301535Z AUTO 22009KT 10SM CLR 14/08 A3014 RMK AO2
Loading
Personal Weather Stations






























Interactive Weather Map
Tropical Storm Tracking
New forecast layout! Learn more

10-Day Weather Forecast

Advertisements
Track Severe Weather on mobile